»·PEaware :: NGF6972 KLAS-KMRY

NGF6972 :: KLAS-KMRY

FLIGHT INFORMATION

Flight Status: Arrived
Operator: Unknown
More flights by this operator :: More flights under this callsign
Pilot: Justin A. (23118)
Aircraft: CIRRUS VISIONJET
(SF50)
More flights by this aircraft type
Origin: KLAS McCarran Intl
United States
Destination: KMRY Monterey Peninsula
United States
More flights between these airports :: More routes between these airports
Route: +SHEAD1 KENNO NTELL PXN V230 SNS
File this flight plan on PilotEdge
Remarks: N972TB
Altitude:
(Current/Filed)
26,000ft
Speed:
(Current/Filed)
200kts
Departed: 08-Feb-20 06:53 PM
Arrived: 08-Feb-20 08:25 PM
Distance/Time
Traveled:
326nm/1:32
Distance/Time
To Go:
Arrived

Flight Plot

Page will automatically refresh every two minutes.

Flight plan parsing failed; only flown route is shown


Map Options




Map Legend


Flown Route
Filed Route
Departure Airport
Arrival Airport
Navaid (VOR, NDB)
Fix

Horizontal Profiles

Position Reports

Time Latitude Longitude Heading Altitude Ground
Speed
08-Feb-20 18:27 36.100420 -115.159656 138 2095ft 0kts
08-Feb-20 18:28 36.100420 -115.159656 138 2095ft 0kts
08-Feb-20 18:29 36.100420 -115.159656 138 2095ft 0kts
08-Feb-20 18:30 36.100420 -115.159656 138 2095ft 0kts
08-Feb-20 18:31 36.100420 -115.159656 138 2095ft 0kts
08-Feb-20 18:32 36.100420 -115.159656 138 2095ft 0kts
08-Feb-20 18:33 36.100420 -115.159656 138 2095ft 0kts
08-Feb-20 18:34 36.100420 -115.159656 138 2095ft 0kts
08-Feb-20 18:35 36.100420 -115.159656 138 2095ft 0kts
08-Feb-20 18:36 36.100420 -115.159656 138 2095ft 0kts
08-Feb-20 18:37 36.100200 -115.159561 214 2096ft 0kts
08-Feb-20 18:38 36.100200 -115.159561 214 2096ft 0kts
08-Feb-20 18:39 36.100200 -115.159561 214 2096ft 0kts
08-Feb-20 18:40 36.100200 -115.159561 214 2096ft 0kts
08-Feb-20 18:41 36.100200 -115.159561 214 2096ft 0kts
08-Feb-20 18:42 36.100200 -115.159561 214 2096ft 0kts
08-Feb-20 18:43 36.100200 -115.159561 214 2096ft 0kts
08-Feb-20 18:44 36.100200 -115.159561 214 2096ft 0kts
08-Feb-20 18:45 36.100200 -115.159561 214 2096ft 0kts
08-Feb-20 18:46 36.100200 -115.159561 214 2096ft 0kts
08-Feb-20 18:47 36.100200 -115.159561 214 2096ft 0kts
08-Feb-20 18:48 36.100200 -115.159561 214 2096ft 0kts
08-Feb-20 18:49 36.099878 -115.159726 193 2096ft 5kts
08-Feb-20 18:50 36.099652 -115.158334 66 2091ft 13kts
08-Feb-20 18:51 36.099841 -115.157682 79 2088ft 2kts
08-Feb-20 18:52 36.095632 -115.158760 203 2099ft 70kts
08-Feb-20 18:53 36.063285 -115.178535 209 2784ft 166kts
08-Feb-20 18:54 36.021117 -115.212922 217 4402ft 206kts
08-Feb-20 18:55 35.983582 -115.274545 241 6452ft 245kts
08-Feb-20 18:56 35.939249 -115.340899 222 8471ft 259kts
08-Feb-20 18:57 35.889383 -115.406224 250 10489ft 261kts
08-Feb-20 18:58 35.887416 -115.494524 271 12507ft 257kts
08-Feb-20 18:59 35.889132 -115.581722 272 14502ft 251kts
08-Feb-20 19:00 35.890601 -115.658680 271 16310ft 243kts
08-Feb-20 19:01 35.891999 -115.740017 273 18302ft 230kts
08-Feb-20 19:02 35.893354 -115.819275 273 19734ft 237kts
08-Feb-20 19:03 35.894698 -115.902117 271 20958ft 241kts
08-Feb-20 19:04 35.908653 -115.982272 311 22223ft 244kts
08-Feb-20 19:05 35.959212 -116.043768 311 23492ft 239kts
08-Feb-20 19:06 36.010248 -116.102681 311 24760ft 233kts
08-Feb-20 19:08 36.057468 -116.157107 310 25949ft 226kts
08-Feb-20 19:09 36.105288 -116.212493 314 25993ft 258kts
08-Feb-20 19:10 36.159964 -116.275692 317 25991ft 276kts
08-Feb-20 19:11 36.217844 -116.342656 317 25991ft 295kts
08-Feb-20 19:12 36.279415 -116.414151 317 25992ft 310kts
08-Feb-20 19:13 36.341805 -116.486827 317 25987ft 296kts
08-Feb-20 19:14 36.399318 -116.553933 317 25988ft 274kts
08-Feb-20 19:15 36.453273 -116.617015 317 25989ft 262kts
08-Feb-20 19:16 36.504892 -116.677483 316 25988ft 256kts
08-Feb-20 19:17 36.556425 -116.737965 316 25986ft 253kts
08-Feb-20 19:18 36.614751 -116.786344 328 25988ft 253kts
08-Feb-20 19:19 36.674734 -116.831962 328 25990ft 253kts
08-Feb-20 19:20 36.734825 -116.877661 328 25990ft 253kts
08-Feb-20 19:21 36.794689 -116.923269 328 25988ft 253kts
08-Feb-20 19:22 36.855464 -116.969658 328 25997ft 251kts
08-Feb-20 19:23 36.915475 -117.015548 328 26012ft 251kts
08-Feb-20 19:24 36.975529 -117.061551 328 26027ft 250kts
08-Feb-20 19:25 37.035062 -117.107253 328 26027ft 251kts
08-Feb-20 19:26 37.094924 -117.153289 328 26027ft 251kts
08-Feb-20 19:27 37.154773 -117.199398 328 26027ft 251kts
08-Feb-20 19:27 37.204810 -117.238020 328 26027ft 251kts
08-Feb-20 19:28 37.264764 -117.284367 328 25890ft 256kts
08-Feb-20 19:30 37.288623 -117.371518 261 25890ft 252kts
08-Feb-20 19:30 37.278901 -117.444010 260 25884ft 252kts
08-Feb-20 19:31 37.266469 -117.530499 260 25878ft 252kts
08-Feb-20 19:32 37.253854 -117.617388 260 25871ft 252kts
08-Feb-20 19:33 37.241240 -117.703774 259 25871ft 252kts
08-Feb-20 19:34 37.228533 -117.790339 259 25871ft 252kts
08-Feb-20 19:35 37.215804 -117.876606 259 25871ft 252kts
08-Feb-20 19:36 37.202955 -117.963223 259 25871ft 252kts
08-Feb-20 19:37 37.190007 -118.050075 259 25872ft 256kts
08-Feb-20 19:38 37.176690 -118.138905 259 25872ft 261kts
08-Feb-20 19:39 37.163132 -118.228864 259 25872ft 264kts
08-Feb-20 19:40 37.149375 -118.319650 259 25872ft 266kts
08-Feb-20 19:41 37.135463 -118.410975 259 25871ft 267kts
08-Feb-20 19:42 37.121467 -118.502348 259 25871ft 267kts
08-Feb-20 19:43 37.107373 -118.593874 259 25871ft 268kts
08-Feb-20 19:44 37.093230 -118.685211 258 25871ft 268kts
08-Feb-20 19:45 37.078978 -118.776779 258 25871ft 268kts
08-Feb-20 19:46 37.064620 -118.868541 258 25901ft 267kts
08-Feb-20 19:47 37.054458 -118.959921 284 25863ft 269kts
08-Feb-20 19:48 37.068676 -119.054104 272 25387ft 283kts
08-Feb-20 19:49 37.072797 -119.153963 273 24893ft 290kts
08-Feb-20 19:50 37.076966 -119.255740 273 24396ft 294kts
08-Feb-20 19:51 37.081182 -119.357917 273 24008ft 292kts
08-Feb-20 19:52 37.084702 -119.457291 268 24008ft 281kts
08-Feb-20 19:53 37.083291 -119.554263 269 24008ft 277kts
08-Feb-20 19:54 37.078566 -119.649992 265 24009ft 274kts
08-Feb-20 19:55 37.071656 -119.745273 262 23746ft 279kts
08-Feb-20 19:56 37.062150 -119.843073 262 23251ft 286kts
08-Feb-20 19:57 37.052551 -119.942483 263 22754ft 290kts
08-Feb-20 19:58 37.042793 -120.043771 263 22255ft 294kts
08-Feb-20 19:59 37.033002 -120.145623 263 21757ft 295kts
08-Feb-20 20:00 37.029601 -120.248010 270 21259ft 296kts
08-Feb-20 20:01 37.029813 -120.350932 269 20760ft 296kts
08-Feb-20 20:02 37.028953 -120.454736 268 20023ft 303kts
08-Feb-20 20:03 37.026519 -120.561195 268 19027ft 309kts
08-Feb-20 20:04 37.024166 -120.668750 268 18029ft 310kts
08-Feb-20 20:05 37.021697 -120.776309 268 17032ft 310kts
08-Feb-20 20:06 36.990156 -120.872076 240 16046ft 308kts
08-Feb-20 20:07 36.947510 -120.964883 240 15052ft 309kts
08-Feb-20 20:08 36.908132 -121.053819 241 14045ft 274kts
08-Feb-20 20:09 36.872963 -121.133420 241 12934ft 264kts
08-Feb-20 20:10 36.837706 -121.213079 241 11574ft 258kts
08-Feb-20 20:11 36.803745 -121.289636 241 10229ft 247kts
08-Feb-20 20:12 36.770902 -121.363516 241 8931ft 243kts
08-Feb-20 20:13 36.737772 -121.437859 241 7628ft 245kts
08-Feb-20 20:14 36.705002 -121.511230 241 6505ft 241kts
08-Feb-20 20:15 36.672425 -121.584020 241 5382ft 240kts
08-Feb-20 20:16 36.623490 -121.590296 138 5096ft 198kts
08-Feb-20 20:17 36.575272 -121.567488 183 5080ft 199kts
08-Feb-20 20:18 36.563773 -121.627017 271 4105ft 220kts
08-Feb-20 20:19 36.569864 -121.702132 271 2720ft 207kts
08-Feb-20 20:20 36.574096 -121.753181 274 1730ft 105kts
08-Feb-20 20:21 36.576521 -121.786941 263 1092ft 96kts
08-Feb-20 20:22 36.578646 -121.819335 290 498ft 96kts
08-Feb-20 20:23 36.588026 -121.847470 291 185ft 67kts
08-Feb-20 20:24 36.590156 -121.856086 193 157ft 3kts
08-Feb-20 20:25 36.588812 -121.858530 253 162ft 6kts
08-Feb-20 20:26 36.588809 -121.859228 166 164ft 0kts
08-Feb-20 20:27 36.588809 -121.859228 166 164ft 0kts
08-Feb-20 20:28 36.588809 -121.859228 166 164ft 0kts
08-Feb-20 20:29 36.588809 -121.859228 166 164ft 0kts
08-Feb-20 20:30 36.588809 -121.859228 166 164ft 0kts
08-Feb-20 20:31 36.588809 -121.859228 166 164ft 0kts
08-Feb-20 20:32 36.588809 -121.859228 166 164ft 0kts
08-Feb-20 20:33 36.588809 -121.859228 166 164ft 0kts
08-Feb-20 20:34 36.588809 -121.859228 166 164ft 0kts
08-Feb-20 20:35 36.588809 -121.859228 166 164ft 0kts
08-Feb-20 20:36 36.588809 -121.859228 166 164ft 0kts
08-Feb-20 20:37 36.588809 -121.859228 166 164ft 0kts
08-Feb-20 20:38 36.588809 -121.859228 166 164ft 0kts
08-Feb-20 20:39 36.588809 -121.859228 166 164ft 0kts

Navigation Log

Ident Type
Flight plan parsing failed, navigation log unavailable